Time;durP1;ratioP1;P1;durP2;ratioP2;P2;SDS_P1;SDS_P2;PMS_P1;PMS_P2;Temp;Humidity;BMP_temperature;BMP_pressure;BME280_temperature;BME280_humidity;BME280_pressure;Samples;Min_cycle;Max_cycle;Signal;HPM_P1;HPM_P2
2023/09/09 00:01:51;;;;;;;49.25;41.40;;;;;;;29.17;78.84;99142.16;5120367;27;20046;-79
2023/09/09 00:04:34;;;;;;;50.20;43.58;;;;;;;29.23;78.72;99134.69;5116118;27;20123;-79
2023/09/09 00:07:18;;;;;;;50.63;43.60;;;;;;;29.31;78.22;99133.91;5103602;27;20047;-80
2023/09/09 00:10:03;;;;;;;43.22;38.78;;;;;;;29.34;78.21;99127.06;5112855;27;20554;-78
2023/09/09 00:12:48;;;;;;;46.78;41.67;;;;;;;29.21;78.51;99120.72;5119059;27;20115;-79
2023/09/09 00:15:38;;;;;;;38.03;34.00;;;;;;;29.16;78.65;99121.66;5120112;27;20546;-79
2023/09/09 00:18:22;;;;;;;39.58;35.53;;;;;;;29.04;79.42;99113.38;5120457;27;20042;-79
2023/09/09 00:21:06;;;;;;;43.65;36.28;;;;;;;29.02;79.32;99108.31;5104632;27;20096;-80
2023/09/09 00:23:50;;;;;;;39.72;35.72;;;;;;;28.97;79.57;99102.25;5103454;27;20135;-79
2023/09/09 00:26:34;;;;;;;41.83;37.38;;;;;;;28.92;80.10;99117.50;5121221;27;20133;-78
2023/09/09 00:29:18;;;;;;;36.53;33.03;;;;;;;29.04;79.76;99116.06;5119700;27;20038;-79
2023/09/09 00:32:02;;;;;;;38.58;34.55;;;;;;;29.05;79.73;99112.25;5116584;27;20050;-79
2023/09/09 00:34:46;;;;;;;46.20;39.67;;;;;;;29.07;79.85;99099.22;5126118;27;20057;-79
2023/09/09 00:37:30;;;;;;;38.15;34.17;;;;;;;29.05;79.72;99107.66;5120577;27;20107;-79
2023/09/09 00:40:14;;;;;;;37.00;33.08;;;;;;;29.06;79.49;99109.25;5124156;27;20037;-79
2023/09/09 00:42:59;;;;;;;46.80;41.83;;;;;;;29.18;79.47;99111.31;5101506;27;20034;-79
2023/09/09 00:45:43;;;;;;;51.83;46.05;;;;;;;29.18;79.34;99105.91;5119907;27;20438;-79
2023/09/09 00:48:27;;;;;;;54.72;43.80;;;;;;;29.12;79.44;99096.38;5116056;27;20439;-80
2023/09/09 00:51:12;;;;;;;52.28;44.20;;;;;;;29.12;79.24;99095.56;5112700;27;20135;-79
2023/09/09 00:53:57;;;;;;;50.00;44.65;;;;;;;28.99;79.86;99100.03;5116925;27;20042;-80
2023/09/09 00:56:42;;;;;;;50.30;42.08;;;;;;;29.05;80.02;99098.75;5098590;28;20047;-79
2023/09/09 00:59:26;;;;;;;47.10;42.00;;;;;;;29.07;79.52;99110.03;5104761;27;20400;-79
2023/09/09 01:02:10;;;;;;;49.55;42.67;;;;;;;29.05;79.87;99096.03;5098152;28;20058;-78
2023/09/09 01:04:54;;;;;;;42.33;36.33;;;;;;;29.04;80.07;99099.88;5115496;28;20069;-79
2023/09/09 01:07:46;;;;;;;48.80;40.10;;;;;;;29.03;80.43;99096.38;5102261;28;20552;-78
2023/09/09 01:10:30;;;;;;;44.97;40.08;;;;;;;29.00;80.10;99093.50;5100536;28;20043;-79
2023/09/09 01:13:15;;;;;;;45.97;40.70;;;;;;;29.01;80.01;99095.91;5120873;28;20461;-78
2023/09/09 01:16:02;;;;;;;46.53;35.90;;;;;;;28.92;80.68;99084.28;5117277;28;20063;-79
2023/09/09 01:18:47;;;;;;;36.70;32.80;;;;;;;28.84;80.68;99091.25;5100380;28;20586;-78
2023/09/09 01:21:33;;;;;;;44.03;38.78;;;;;;;28.99;80.46;99086.50;5120073;28;20042;-78
2023/09/09 01:24:17;;;;;;;44.42;39.67;;;;;;;29.08;80.11;99085.41;5115872;28;20047;-78
2023/09/09 01:27:01;;;;;;;37.15;33.40;;;;;;;29.09;79.97;99086.22;5117845;28;20092;-79
2023/09/09 01:29:45;;;;;;;40.28;33.78;;;;;;;29.06;79.88;99084.13;5119293;28;20080;-79
2023/09/09 01:32:29;;;;;;;34.00;30.65;;;;;;;29.04;79.96;99083.66;5119165;28;20039;-79
2023/09/09 01:35:13;;;;;;;31.90;27.35;;;;;;;29.02;80.21;99091.28;5112187;28;20085;-79
2023/09/09 01:37:58;;;;;;;37.20;32.85;;;;;;;28.99;80.14;99091.91;5118807;28;20115;-79
2023/09/09 01:40:43;;;;;;;49.00;41.65;;;;;;;29.07;80.24;99083.00;5100287;28;20100;-79
2023/09/09 01:43:27;;;;;;;48.50;43.03;;;;;;;29.08;80.07;99081.91;5119169;28;20050;-78
2023/09/09 01:46:11;;;;;;;50.58;43.17;;;;;;;29.10;80.15;99081.59;5119485;28;20049;-78
2023/09/09 01:48:54;;;;;;;53.95;45.00;;;;;;;29.06;79.94;99076.00;5101256;28;20078;-78
2023/09/09 01:51:38;;;;;;;46.92;41.92;;;;;;;29.07;80.04;99085.72;5123564;28;20538;-79
2023/09/09 01:54:22;;;;;;;49.55;44.17;;;;;;;29.09;79.91;99086.22;5100893;28;20086;-78
2023/09/09 01:57:06;;;;;;;44.10;38.92;;;;;;;28.86;80.47;99086.34;5114015;28;20496;-77
2023/09/09 01:59:50;;;;;;;41.75;36.88;;;;;;;28.78;80.82;99095.19;5099336;28;20047;-78
2023/09/09 02:02:34;;;;;;;35.88;32.10;;;;;;;28.64;80.76;99089.94;5123647;28;20475;-77
2023/09/09 02:05:18;;;;;;;42.67;35.70;;;;;;;28.70;80.66;99088.66;5124259;28;20557;-78
2023/09/09 02:08:02;;;;;;;39.22;35.17;;;;;;;28.60;80.80;99081.66;5110131;27;20393;-78
2023/09/09 02:10:50;;;;;;;32.65;28.35;;;;;;;28.59;80.93;99080.06;5121306;27;20115;-79
2023/09/09 02:13:34;;;;;;;37.80;33.70;;;;;;;28.54;81.22;99082.94;5121022;27;20046;-78
2023/09/09 02:16:18;;;;;;;40.28;35.95;;;;;;;28.53;81.48;99086.75;5119865;27;20361;-78
2023/09/09 02:19:03;;;;;;;40.75;36.47;;;;;;;28.59;81.34;99084.66;5103751;27;20046;-78
2023/09/09 02:21:47;;;;;;;44.92;40.08;;;;;;;28.61;81.22;99083.25;5107280;27;20050;-78
2023/09/09 02:24:31;;;;;;;43.83;39.20;;;;;;;28.55;81.77;99079.13;5116821;27;20042;-79
2023/09/09 02:27:15;;;;;;;36.92;32.95;;;;;;;28.49;81.71;99073.06;5123529;27;20045;-78
2023/09/09 02:30:01;;;;;;;39.45;35.42;;;;;;;28.44;81.94;99070.50;5124572;27;20087;-79
2023/09/09 02:32:46;;;;;;;35.58;31.77;;;;;;;28.34;82.27;99079.69;5104880;27;20088;-78
2023/09/09 02:35:30;;;;;;;37.00;33.20;;;;;;;28.22;82.65;99071.38;5128053;27;20045;-78
2023/09/09 02:38:14;;;;;;;37.65;33.65;;;;;;;28.24;82.62;99074.56;5105462;27;20115;-78
2023/09/09 02:40:58;;;;;;;46.15;40.38;;;;;;;28.22;82.83;99068.69;5117221;27;20042;-78
2023/09/09 02:43:42;;;;;;;44.83;40.25;;;;;;;28.09;83.45;99067.66;5123943;27;20038;-78
2023/09/09 02:46:26;;;;;;;43.70;39.35;;;;;;;27.97;83.76;99072.84;5101171;27;20038;-78
2023/09/09 02:49:10;;;;;;;48.35;43.20;;;;;;;28.00;83.49;99075.72;5106648;27;20548;-79
2023/09/09 02:51:54;;;;;;;46.88;41.90;;;;;;;27.99;83.59;99068.72;5101705;27;20065;-78
2023/09/09 02:54:39;;;;;;;41.95;37.67;;;;;;;27.89;83.85;99064.41;5102019;27;20038;-79
2023/09/09 02:57:23;;;;;;;39.38;35.33;;;;;;;27.79;84.06;99060.06;5106086;27;20153;-78
2023/09/09 03:00:07;;;;;;;43.53;38.65;;;;;;;27.79;84.32;99056.56;5120833;27;20070;-79
2023/09/09 03:02:51;;;;;;;53.50;47.92;;;;;;;27.72;85.50;99058.91;5104583;27;22075;-78
2023/09/09 03:05:36;;;;;;;59.20;52.78;;;;;;;27.70;85.56;99061.91;5125239;27;20151;-79
2023/09/09 03:08:20;;;;;;;60.50;53.60;;;;;;;27.79;85.69;99061.94;5104326;27;20051;-79
2023/09/09 03:11:04;;;;;;;68.15;57.85;;;;;;;27.78;85.88;99061.16;5105697;27;20042;-79
2023/09/09 03:13:48;;;;;;;70.88;58.92;;;;;;;27.78;85.97;99061.16;5126586;27;20034;-78
2023/09/09 03:16:32;;;;;;;67.32;59.13;;;;;;;27.74;86.17;99056.69;5114132;27;20100;-78
2023/09/09 03:19:16;;;;;;;66.13;56.55;;;;;;;27.69;86.10;99057.63;5104347;27;20105;-79
2023/09/09 03:22:00;;;;;;;68.05;57.45;;;;;;;27.72;86.14;99057.03;5116855;27;20047;-78
2023/09/09 03:24:44;;;;;;;68.60;58.95;;;;;;;27.62;86.71;99070.75;5105500;27;20042;-79
2023/09/09 03:27:28;;;;;;;68.03;57.00;;;;;;;27.62;86.45;99070.75;5113150;27;20050;-80
2023/09/09 03:30:12;;;;;;;74.32;63.63;;;;;;;27.37;87.81;99059.47;5104509;27;20083;-79
2023/09/09 03:32:56;;;;;;;60.10;53.55;;;;;;;27.45;87.02;99064.09;5120823;27;20050;-79
2023/09/09 03:35:40;;;;;;;67.47;58.10;;;;;;;27.46;87.46;99067.63;5119271;27;20523;-78
2023/09/09 03:38:24;;;;;;;68.80;60.60;;;;;;;27.54;87.56;99069.59;5102518;27;20562;-79
2023/09/09 03:41:11;;;;;;;78.03;64.25;;;;;;;27.43;87.82;99063.63;5117581;27;20074;-79
2023/09/09 03:43:55;;;;;;;67.35;60.10;;;;;;;27.45;88.03;99053.31;5104942;27;20116;-80
2023/09/09 03:46:39;;;;;;;73.13;61.70;;;;;;;27.50;87.69;99058.59;5103968;27;20393;-79
2023/09/09 03:49:23;;;;;;;73.97;63.83;;;;;;;27.59;87.40;99065.97;5106626;27;20064;-79
2023/09/09 03:52:07;;;;;;;68.18;60.35;;;;;;;27.67;87.62;99064.44;5104854;27;20041;-80
2023/09/09 03:54:51;;;;;;;71.72;61.55;;;;;;;27.73;87.15;99066.72;5120625;27;20077;-79
2023/09/09 03:57:36;;;;;;;71.38;57.97;;;;;;;27.80;87.14;99064.34;5120753;27;20079;-78
2023/09/09 04:00:20;;;;;;;64.05;56.47;;;;;;;27.74;87.35;99057.50;5105196;27;20038;-78
2023/09/09 04:03:04;;;;;;;61.65;53.88;;;;;;;27.73;86.99;99064.00;5105434;27;20046;-78
2023/09/09 04:05:50;;;;;;;62.20;55.10;;;;;;;27.63;87.41;99061.56;5120624;27;20090;-78
2023/09/09 04:08:36;;;;;;;56.60;47.60;;;;;;;27.51;86.87;99060.25;5113310;27;20043;-78
2023/09/09 04:11:20;;;;;;;60.47;49.35;;;;;;;27.55;87.03;99062.31;5116852;27;20061;-78
2023/09/09 04:14:04;;;;;;;49.25;43.42;;;;;;;27.58;86.73;99059.78;5122632;27;20073;-78
2023/09/09 04:16:48;;;;;;;43.72;39.00;;;;;;;27.48;86.72;99050.00;5121777;27;20107;-80
2023/09/09 04:19:32;;;;;;;49.65;44.25;;;;;;;27.46;86.53;99062.22;5119518;27;20050;-78
2023/09/09 04:22:16;;;;;;;57.97;51.60;;;;;;;27.43;87.20;99052.84;5115307;27;20054;-78
2023/09/09 04:25:00;;;;;;;60.90;50.30;;;;;;;27.42;86.92;99059.34;5113611;27;20119;-81
2023/09/09 04:27:44;;;;;;;57.15;48.60;;;;;;;27.31;87.17;99060.66;5105170;27;20131;-81
2023/09/09 04:30:28;;;;;;;52.90;43.15;;;;;;;27.43;86.84;99058.22;5118222;27;20057;-80
2023/09/09 04:33:12;;;;;;;55.50;41.65;;;;;;;27.54;86.43;99058.03;5112900;27;20038;-80
2023/09/09 04:35:56;;;;;;;53.75;40.70;;;;;;;27.53;86.30;99064.53;5115145;27;20050;-80
2023/09/09 04:38:40;;;;;;;53.97;39.25;;;;;;;27.86;85.32;99065.03;5120804;27;20042;-80
2023/09/09 04:41:24;;;;;;;45.13;39.35;;;;;;;27.57;85.99;99065.50;5118256;27;20085;-80
2023/09/09 04:44:09;;;;;;;46.33;38.10;;;;;;;27.44;85.96;99062.53;5119949;27;20046;-80
2023/09/09 04:46:53;;;;;;;60.20;45.33;;;;;;;27.21;87.45;99061.72;5121059;27;20081;-80
2023/09/09 04:49:37;;;;;;;44.63;38.83;;;;;;;27.19;87.12;99061.22;5101395;28;20164;-81
2023/09/09 04:52:21;;;;;;;48.75;43.55;;;;;;;27.13;87.11;99071.34;5100375;28;20099;-78
2023/09/09 04:55:05;;;;;;;51.38;45.58;;;;;;;27.01;88.07;99069.16;5104042;28;20535;-78
2023/09/09 04:57:49;;;;;;;43.35;38.67;;;;;;;26.98;87.88;99068.97;5114255;27;20065;-78
2023/09/09 05:00:33;;;;;;;54.35;42.03;;;;;;;26.78;88.36;99066.38;5112485;27;20123;-79
2023/09/09 05:03:17;;;;;;;43.15;38.50;;;;;;;26.74;88.50;99067.31;5115942;27;20057;-80
2023/09/09 05:06:01;;;;;;;36.97;33.05;;;;;;;26.74;88.66;99070.00;5119443;27;20078;-78
2023/09/09 05:08:46;;;;;;;43.17;36.83;;;;;;;26.71;88.64;99071.41;5099966;27;20045;-79
2023/09/09 05:11:30;;;;;;;52.55;37.92;;;;;;;26.72;88.94;99072.19;5116753;28;20038;-80
2023/09/09 05:14:14;;;;;;;45.90;36.45;;;;;;;26.76;89.28;99067.81;5118347;28;20054;-79
2023/09/09 05:16:58;;;;;;;40.70;34.72;;;;;;;26.73;88.64;99066.50;5105840;28;20061;-79
2023/09/09 05:19:42;;;;;;;46.92;32.88;;;;;;;26.77;89.05;99066.72;5095155;28;20034;-80
2023/09/09 05:22:26;;;;;;;42.03;33.65;;;;;;;26.76;89.14;99067.81;5121172;28;20400;-80
2023/09/09 05:25:10;;;;;;;44.38;31.85;;;;;;;26.76;88.93;99067.81;5124664;28;20042;-80
2023/09/09 05:27:54;;;;;;;44.05;33.38;;;;;;;26.66;88.88;99063.44;5117683;28;20035;-80
2023/09/09 05:30:40;;;;;;;47.97;34.80;;;;;;;26.52;89.69;99068.81;5103980;28;20118;-80
2023/09/09 05:33:24;;;;;;;42.70;31.88;;;;;;;26.52;89.41;99072.31;5116618;28;20420;-79
2023/09/09 05:36:09;;;;;;;43.28;32.40;;;;;;;26.49;89.85;99062.16;5100888;28;20372;-80
2023/09/09 05:38:59;;;;;;;39.45;30.90;;;;;;;26.40;89.93;99060.47;5116116;28;20091;-79
2023/09/09 05:41:43;;;;;;;39.65;31.45;;;;;;;26.51;90.26;99069.91;5109064;28;20038;-79
2023/09/09 05:44:27;;;;;;;38.22;29.80;;;;;;;26.46;90.36;99068.16;5107418;27;20146;-78
2023/09/09 05:47:11;;;;;;;34.78;26.48;;;;;;;26.46;90.26;99070.84;5120766;27;20043;-79
2023/09/09 05:49:55;;;;;;;53.22;39.15;;;;;;;26.60;90.51;99070.81;5122619;27;20519;-79
2023/09/09 05:52:40;;;;;;;49.15;39.38;;;;;;;26.76;90.61;99075.88;5119429;27;20030;-80
2023/09/09 05:55:24;;;;;;;50.33;39.10;;;;;;;26.82;90.32;99077.38;5112386;27;20388;-80
2023/09/09 05:58:08;;;;;;;52.92;41.05;;;;;;;26.90;90.20;99079.34;5123710;27;20046;-80
2023/09/09 06:00:52;;;;;;;41.42;36.70;;;;;;;27.06;89.76;99076.34;5098813;27;20037;-81
2023/09/09 06:03:36;;;;;;;47.95;39.90;;;;;;;27.21;89.40;99084.06;5108499;27;20206;-78
2023/09/09 06:06:22;;;;;;;48.67;38.65;;;;;;;27.33;88.93;99086.22;5106847;27;20050;-79
2023/09/09 06:09:06;;;;;;;46.35;37.55;;;;;;;27.44;88.80;99086.00;5119400;27;20045;-80
2023/09/09 06:11:50;;;;;;;49.83;38.97;;;;;;;27.60;88.49;99083.75;5103713;27;20045;-79
2023/09/09 06:14:34;;;;;;;47.03;37.58;;;;;;;27.74;88.46;99084.47;5104531;27;20495;-81
2023/09/09 06:17:18;;;;;;;42.03;35.38;;;;;;;27.90;88.53;99086.75;5107414;27;20053;-79
2023/09/09 06:20:02;;;;;;;52.42;42.05;;;;;;;28.10;87.38;99090.84;5117574;27;20239;-79
2023/09/09 06:22:47;;;;;;;47.35;37.63;;;;;;;28.18;87.71;99089.31;5124849;27;20046;-81
2023/09/09 06:25:31;;;;;;;48.83;37.88;;;;;;;28.17;87.67;99095.81;5112785;27;20050;-81
2023/09/09 06:28:16;;;;;;;41.55;35.85;;;;;;;28.12;88.00;99087.84;5122529;27;20500;-79
2023/09/09 06:31:00;;;;;;;42.47;36.60;;;;;;;28.22;88.17;99095.69;5105462;27;20076;-79
2023/09/09 06:33:44;;;;;;;38.67;34.53;;;;;;;28.39;87.52;99091.44;5122222;27;20434;-80
2023/09/09 06:36:27;;;;;;;39.83;35.63;;;;;;;28.44;87.47;99099.41;5100933;28;20054;-80
2023/09/09 06:39:12;;;;;;;35.95;31.25;;;;;;;28.49;87.50;99096.56;5112649;27;20038;-80
2023/09/09 06:41:56;;;;;;;37.35;31.58;;;;;;;28.56;87.32;99093.41;5124725;27;20077;-80
2023/09/09 06:44:40;;;;;;;40.70;35.70;;;;;;;28.70;86.99;99098.69;5101926;27;20120;-79
2023/09/09 06:47:24;;;;;;;43.92;38.25;;;;;;;28.74;86.79;99102.34;5117696;27;20059;-79
2023/09/09 06:50:08;;;;;;;39.08;34.20;;;;;;;28.96;86.83;99098.75;5104869;27;20385;-80
2023/09/09 06:52:52;;;;;;;41.67;35.15;;;;;;;29.19;85.62;99096.69;5123223;27;20096;-80
2023/09/09 06:55:36;;;;;;;35.08;30.70;;;;;;;29.41;85.43;99097.66;5118061;27;20046;-80
2023/09/09 06:58:20;;;;;;;33.20;29.27;;;;;;;29.70;84.99;99101.63;5097697;27;20092;-78
2023/09/09 07:01:06;;;;;;;36.22;29.02;;;;;;;29.95;83.83;99093.75;5113075;27;20058;-80
2023/09/09 07:03:49;;;;;;;30.92;27.08;;;;;;;30.15;83.55;99092.25;5117220;27;20088;-80
2023/09/09 07:06:33;;;;;;;34.85;29.40;;;;;;;30.21;82.83;99090.16;5100752;27;20119;-79
2023/09/09 07:09:18;;;;;;;37.20;32.25;;;;;;;29.64;82.34;99089.34;5105391;27;20500;-80
2023/09/09 07:12:02;;;;;;;33.85;28.65;;;;;;;29.91;81.94;99087.41;5109395;27;20438;-80
2023/09/09 07:14:47;;;;;;;31.75;28.30;;;;;;;29.97;82.10;99093.41;5108744;27;20042;-80
2023/09/09 07:17:31;;;;;;;30.92;25.27;;;;;;;29.84;82.79;99092.50;5111743;27;20139;-80
2023/09/09 07:20:16;;;;;;;31.52;27.42;;;;;;;29.87;82.39;99087.25;5100868;27;20135;-79
2023/09/09 07:23:03;;;;;;;34.75;26.35;;;;;;;29.84;82.90;99096.00;5104047;27;20069;-79
2023/09/09 07:25:53;;;;;;;32.83;26.63;;;;;;;30.14;81.76;99095.31;5117455;27;20446;-80
2023/09/09 07:28:37;;;;;;;39.78;31.08;;;;;;;30.23;80.81;99098.75;5116074;27;20096;-79
2023/09/09 07:31:21;;;;;;;31.40;28.00;;;;;;;30.34;80.57;99097.28;5102808;27;20065;-79
2023/09/09 07:34:05;;;;;;;32.80;27.17;;;;;;;30.32;80.10;99102.22;5126463;27;20039;-82
2023/09/09 07:36:50;;;;;;;32.78;27.98;;;;;;;30.26;80.53;99114.34;5099255;27;20059;-80
2023/09/09 07:39:46;;;;;;;34.00;30.45;;;;;;;30.28;80.37;99105.91;5099839;27;20393;-79
2023/09/09 07:42:30;;;;;;;36.30;31.65;;;;;;;30.30;80.41;99107.19;5097448;27;20038;-79
2023/09/09 07:45:14;;;;;;;30.60;27.48;;;;;;;30.29;80.83;99113.72;5112621;27;20042;-80
2023/09/09 07:47:58;;;;;;;37.03;28.60;;;;;;;30.37;80.77;99116.69;5118063;27;20055;-82
2023/09/09 07:50:49;;;;;;;30.98;27.77;;;;;;;30.48;80.76;99115.22;5103203;27;20037;-79
2023/09/09 07:53:34;;;;;;;34.60;28.02;;;;;;;30.57;79.78;99105.13;5094597;27;20055;-79
2023/09/09 07:56:18;;;;;;;36.22;29.58;;;;;;;30.69;79.26;99120.69;5122660;27;20122;-79
2023/09/09 07:59:02;;;;;;;34.67;28.33;;;;;;;30.64;79.34;99132.50;5116698;27;20515;-79
2023/09/09 08:01:47;;;;;;;35.53;25.73;;;;;;;30.56;79.31;99124.41;5116403;27;20161;-80
2023/09/09 08:04:31;;;;;;;28.25;25.02;;;;;;;30.50;78.35;99124.59;5119221;27;20088;-81
2023/09/09 08:07:15;;;;;;;33.08;26.45;;;;;;;30.50;78.67;99127.28;5093864;27;20039;-80
2023/09/09 08:09:59;;;;;;;32.22;27.25;;;;;;;30.52;78.35;99131.59;5104415;27;20034;-80
2023/09/09 08:12:43;;;;;;;40.67;30.10;;;;;;;30.42;78.70;99119.22;5119863;27;20074;-81
2023/09/09 08:15:28;;;;;;;37.92;30.25;;;;;;;30.52;77.96;99118.84;5119026;27;20061;-80
2023/09/09 08:18:13;;;;;;;29.25;24.98;;;;;;;30.77;77.76;99119.88;5118709;27;20072;-81
2023/09/09 08:20:57;;;;;;;39.55;27.85;;;;;;;30.80;77.53;99125.75;5100617;27;20496;-81
2023/09/09 08:23:41;;;;;;;29.73;25.65;;;;;;;31.07;77.52;99132.59;5105206;27;20050;-81
2023/09/09 08:26:25;;;;;;;38.72;27.30;;;;;;;31.23;76.72;99129.28;5118422;27;20046;-80
2023/09/09 08:29:09;;;;;;;34.20;28.73;;;;;;;31.38;75.44;99128.69;5121031;27;20042;-81
2023/09/09 08:31:53;;;;;;;38.10;27.95;;;;;;;31.36;76.10;99125.50;5106398;27;20050;-81
2023/09/09 08:34:37;;;;;;;32.58;27.77;;;;;;;31.36;75.41;99122.81;5119608;27;20050;-81
2023/09/09 08:37:22;;;;;;;40.75;31.45;;;;;;;31.18;75.93;99128.34;5123194;27;20119;-81
2023/09/09 08:40:06;;;;;;;39.08;28.15;;;;;;;31.33;75.68;99134.31;5103502;27;20077;-80
2023/09/09 08:43:18;;;;;;;28.73;25.63;;;;;;;31.38;75.53;99142.25;5113889;27;20057;-80
2023/09/09 08:46:11;;;;;;;39.33;25.75;;;;;;;31.40;75.26;99142.69;5112929;27;20462;-81
2023/09/09 08:48:59;;;;;;;33.00;27.50;;;;;;;31.51;75.23;99145.00;5101292;27;20065;-81
2023/09/09 08:51:57;;;;;;;27.00;24.17;;;;;;;31.50;74.86;99152.34;5108556;27;20327;-81
2023/09/09 08:54:42;;;;;;;29.55;23.83;;;;;;;31.58;74.71;99146.06;5125205;27;20042;-80
2023/09/09 08:57:28;;;;;;;26.27;22.98;;;;;;;31.70;75.24;99149.94;5102473;27;20062;-80
2023/09/09 09:00:14;;;;;;;34.20;25.58;;;;;;;31.65;74.70;99153.66;5108985;27;20122;-79
2023/09/09 09:03:00;;;;;;;32.30;25.75;;;;;;;31.60;74.98;99148.44;5101844;28;20172;-78
2023/09/09 09:05:44;;;;;;;32.03;25.85;;;;;;;31.62;74.70;99138.03;5126137;27;20030;-79
2023/09/09 09:08:28;;;;;;;30.13;25.63;;;;;;;31.72;74.34;99151.19;5119559;28;20047;-78
2023/09/09 09:11:13;;;;;;;33.03;25.13;;;;;;;31.70;74.57;99144.50;5124744;27;20370;-78
2023/09/09 09:14:06;;;;;;;32.58;27.52;;;;;;;31.49;75.15;99150.75;5118766;28;20054;-79
2023/09/09 09:16:50;;;;;;;32.88;27.80;;;;;;;31.40;74.60;99141.91;5100243;28;20131;-79
2023/09/09 09:19:36;;;;;;;33.25;27.17;;;;;;;31.42;75.37;99137.72;5120498;27;20449;-78
2023/09/09 09:22:20;;;;;;;32.75;26.75;;;;;;;31.38;75.96;99138.75;5104072;28;21645;-79
2023/09/09 09:25:04;;;;;;;36.47;26.25;;;;;;;31.46;75.46;99141.38;5105492;27;20051;-79
2023/09/09 09:27:48;;;;;;;34.47;27.13;;;;;;;31.61;74.74;99141.88;5124971;27;20034;-79
2023/09/09 09:30:33;;;;;;;30.27;26.95;;;;;;;31.68;74.49;99142.16;5106861;27;20030;-79
2023/09/09 09:33:23;;;;;;;31.92;26.27;;;;;;;31.64;74.93;99135.78;5121381;27;20095;-79
2023/09/09 09:36:08;;;;;;;30.60;25.45;;;;;;;31.61;74.15;99141.88;5122511;27;20103;-80
2023/09/09 09:38:53;;;;;;;27.90;23.70;;;;;;;31.60;74.77;99132.16;5106586;27;20134;-83
2023/09/09 09:41:43;;;;;;;31.10;23.42;;;;;;;31.59;74.75;99138.72;5105582;27;20042;-80
2023/09/09 09:44:27;;;;;;;28.55;22.88;;;;;;;31.53;74.63;99135.41;5108628;27;20054;-80
2023/09/09 09:47:11;;;;;;;27.17;24.27;;;;;;;31.52;73.97;99133.03;5118992;27;20097;-80
2023/09/09 09:49:56;;;;;;;30.08;24.65;;;;;;;31.68;74.49;99142.16;5122875;27;20042;-81
2023/09/09 09:52:40;;;;;;;38.10;24.92;;;;;;;31.55;74.08;99137.78;5104669;27;20124;-80
2023/09/09 09:55:25;;;;;;;27.13;22.75;;;;;;;31.76;73.44;99138.53;5105201;27;20064;-81
2023/09/09 09:58:13;;;;;;;23.52;19.70;;;;;;;31.65;73.18;99137.38;5101093;27;20096;-81
2023/09/09 10:00:59;;;;;;;28.58;20.63;;;;;;;31.76;73.32;99140.47;5103327;27;20050;-78
2023/09/09 10:03:57;;;;;;;31.13;23.17;;;;;;;31.61;72.31;99141.88;5118234;27;20034;-79
2023/09/09 10:06:41;;;;;;;29.65;21.15;;;;;;;31.67;72.21;99140.56;5097437;28;20042;-80
2023/09/09 10:09:52;;;;;;;24.17;19.25;;;;;;;31.88;71.91;99148.66;5118912;27;20042;-80
2023/09/09 10:12:51;;;;;;;30.30;20.15;;;;;;;32.18;72.72;99153.13;5103343;27;20189;-78
2023/09/09 10:15:36;;;;;;;28.55;21.15;;;;;;;32.26;72.35;99146.81;5104867;27;20400;-79
2023/09/09 10:18:24;;;;;;;26.08;23.20;;;;;;;32.39;71.52;99146.84;5111288;27;20546;-78
2023/09/09 10:21:10;;;;;;;26.50;21.10;;;;;;;32.44;71.53;99152.84;5101610;27;20042;-78
2023/09/09 10:23:56;;;;;;;24.92;20.55;;;;;;;32.75;71.28;99148.75;5116617;27;20049;-77
2023/09/09 10:26:40;;;;;;;25.27;21.30;;;;;;;32.81;70.84;99152.03;5102719;27;20058;-77
2023/09/09 10:29:25;;;;;;;25.05;21.58;;;;;;;32.93;70.54;99153.19;5119312;27;20113;-80
2023/09/09 10:32:11;;;;;;;24.45;20.27;;;;;;;33.00;70.38;99140.59;5106164;27;20074;-79
2023/09/09 10:34:58;;;;;;;23.13;20.77;;;;;;;33.22;70.91;99148.59;5103741;27;20467;-77
2023/09/09 10:37:43;;;;;;;22.13;17.98;;;;;;;33.36;69.91;99140.81;5110958;27;20124;-78
2023/09/09 10:40:27;;;;;;;28.45;17.90;;;;;;;33.55;70.45;99145.66;5105164;27;20449;-77
2023/09/09 10:43:11;;;;;;;20.52;16.40;;;;;;;33.66;70.61;99139.69;5122285;27;20046;-77
2023/09/09 10:45:55;;;;;;;23.13;17.27;;;;;;;33.59;69.72;99140.28;5103439;27;20135;-77
2023/09/09 10:48:43;;;;;;;26.25;17.95;;;;;;;33.78;68.82;99141.56;5099146;27;20393;-77
2023/09/09 10:51:28;;;;;;;24.23;17.05;;;;;;;33.89;67.71;99143.41;5098829;27;20037;-77
2023/09/09 10:54:13;;;;;;;27.25;16.80;;;;;;;33.98;67.46;99135.09;5098781;27;20096;-78
2023/09/09 10:57:02;;;;;;;19.85;16.60;;;;;;;34.40;67.32;99139.25;5114049;27;20058;-79
2023/09/09 10:59:46;;;;;;;29.83;18.77;;;;;;;34.57;65.74;99132.63;5108406;27;20042;-78
2023/09/09 11:02:30;;;;;;;21.25;15.98;;;;;;;34.55;65.17;99136.88;5122608;27;20086;-78
2023/09/09 11:05:15;;;;;;;24.00;16.40;;;;;;;34.89;64.82;99137.25;5101828;27;20092;-78
2023/09/09 11:07:59;;;;;;;20.48;15.48;;;;;;;35.23;64.89;99131.34;5104956;27;20118;-78
2023/09/09 11:10:43;;;;;;;20.38;14.43;;;;;;;35.39;63.98;99126.59;5098712;27;20452;-82
2023/09/09 11:13:59;;;;;;;26.25;14.65;;;;;;;35.74;64.10;99122.94;5116571;27;20042;-82
2023/09/09 11:16:48;;;;;;;22.52;14.50;;;;;;;35.44;61.72;99115.38;5095576;27;20104;-82
2023/09/09 11:19:33;;;;;;;25.95;14.40;;;;;;;35.83;62.87;99119.22;5108136;27;20172;-82
2023/09/09 11:22:18;;;;;;;22.25;15.52;;;;;;;35.66;62.97;99128.63;5116741;27;20516;-82
2023/09/09 11:25:03;;;;;;;20.70;14.40;;;;;;;35.54;61.69;99124.94;5121957;27;20134;-82
2023/09/09 11:27:49;;;;;;;23.95;15.02;;;;;;;35.65;61.92;99121.59;5122116;27;20100;-81
2023/09/09 11:30:41;;;;;;;23.77;13.75;;;;;;;35.82;63.03;99120.34;5097633;27;20046;-82
2023/09/09 11:33:25;;;;;;;19.20;12.73;;;;;;;36.00;63.17;99126.91;5112813;27;20058;-81
2023/09/09 11:36:09;;;;;;;18.33;12.82;;;;;;;35.81;60.62;99129.72;5112639;27;20062;-83
2023/09/09 11:38:57;;;;;;;20.70;12.18;;;;;;;36.03;60.65;99117.22;5116910;27;20176;-81
2023/09/09 11:41:44;;;;;;;19.60;11.63;;;;;;;36.05;60.49;99116.84;5103367;27;20074;-82
2023/09/09 11:44:36;;;;;;;18.10;11.90;;;;;;;36.23;61.18;99117.94;5114848;27;20051;-82
2023/09/09 11:47:20;;;;;;;20.25;11.32;;;;;;;36.38;59.36;99113.47;5115073;27;20092;-82
2023/09/09 11:50:05;;;;;;;23.88;11.27;;;;;;;36.77;59.80;99107.00;5112972;27;20100;-82
2023/09/09 11:52:50;;;;;;;26.48;11.90;;;;;;;36.63;60.80;99112.28;5116191;27;20131;-82
2023/09/09 11:55:34;;;;;;;17.85;12.73;;;;;;;35.11;60.61;99103.03;5102572;27;20038;-82
2023/09/09 11:58:18;;;;;;;17.85;11.38;;;;;;;35.63;59.66;99108.34;5106987;27;20393;-84
2023/09/09 12:01:02;;;;;;;21.88;12.57;;;;;;;35.00;60.64;99104.75;5118114;27;20082;-82
2023/09/09 12:03:51;;;;;;;20.25;12.32;;;;;;;34.92;60.27;99103.00;5112587;27;20049;-81
2023/09/09 12:06:37;;;;;;;19.70;11.50;;;;;;;35.10;60.05;99104.19;5116876;27;20127;-81
2023/09/09 12:09:22;;;;;;;26.48;11.80;;;;;;;35.02;60.45;99102.47;5102637;27;20029;-81
2023/09/09 12:12:06;;;;;;;16.65;11.10;;;;;;;34.79;60.31;99105.06;5113200;27;20042;-81
2023/09/09 12:14:53;;;;;;;18.70;11.88;;;;;;;34.68;61.40;99104.84;5097449;27;20046;-81
2023/09/09 12:17:38;;;;;;;17.02;11.68;;;;;;;34.15;60.60;99112.19;5104652;27;20054;-81
2023/09/09 12:20:22;;;;;;;21.63;11.15;;;;;;;34.10;60.92;99115.19;5096818;27;20472;-81
2023/09/09 12:23:07;;;;;;;19.10;11.32;;;;;;;34.17;60.90;99114.56;5117187;27;20063;-81
2023/09/09 12:25:51;;;;;;;16.00;11.60;;;;;;;34.30;60.75;99113.31;5110919;27;20146;-81
2023/09/09 12:28:35;;;;;;;14.90;10.45;;;;;;;34.41;60.75;99119.03;5096310;28;20042;-81
2023/09/09 12:31:19;;;;;;;16.88;11.15;;;;;;;34.49;59.75;99119.19;5119145;27;20149;-81
2023/09/09 12:34:03;;;;;;;21.45;10.40;;;;;;;34.46;58.89;99112.53;5102017;27;20029;-82
2023/09/09 12:36:49;;;;;;;14.13;10.13;;;;;;;34.93;58.88;99104.59;5114578;27;20112;-81
2023/09/09 12:39:33;;;;;;;20.58;10.85;;;;;;;35.13;58.53;99108.91;5113223;27;20401;-82